Time;durP1;ratioP1;P1;durP2;ratioP2;P2;SDS_P1;SDS_P2;PMS_P1;PMS_P2;Temp;Humidity;BMP_temperature;BMP_pressure;BME280_temperature;BME280_humidity;BME280_pressure;Samples;Min_cycle;Max_cycle;Signal;HPM_P1;HPM_P2
2023/07/18 00:02:17;;;;;;;9.10;7.90;;;;;;;24.01;67.72;99157.14;107392;1258;73893;-38
2023/07/18 00:04:45;;;;;;;10.20;8.30;;;;;;;24.02;67.67;99154.31;107459;1254;67885;-38
2023/07/18 00:07:13;;;;;;;10.10;8.30;;;;;;;24.02;67.84;99151.38;107425;1254;71371;-38
2023/07/18 00:09:41;;;;;;;16.10;8.20;;;;;;;24.00;68.16;99146.80;107499;1257;60489;-38
2023/07/18 00:12:10;;;;;;;9.20;8.20;;;;;;;23.98;68.28;99144.02;107493;1257;60271;-38
2023/07/18 00:14:37;;;;;;;10.30;7.90;;;;;;;23.96;68.54;99140.55;107549;1254;72629;-39
2023/07/18 00:17:05;;;;;;;12.80;8.20;;;;;;;23.97;68.54;99136.88;107511;1257;66622;-38
2023/07/18 00:19:33;;;;;;;10.90;8.20;;;;;;;23.99;68.60;99127.93;107471;1254;72670;-38
2023/07/18 00:22:01;;;;;;;9.40;8.40;;;;;;;24.00;68.58;99127.27;107483;1254;60401;-38
2023/07/18 00:24:30;;;;;;;10.00;8.90;;;;;;;23.99;68.56;99124.83;107352;1252;60441;-38
2023/07/18 00:26:58;;;;;;;11.20;8.80;;;;;;;23.98;68.46;99116.90;107448;1254;72610;-39
2023/07/18 00:29:26;;;;;;;11.30;9.10;;;;;;;23.96;68.20;99113.20;107410;1254;67586;-40
2023/07/18 00:31:54;;;;;;;9.70;8.40;;;;;;;23.96;68.26;99110.98;107398;1254;72885;-39
2023/07/18 00:34:22;;;;;;;13.10;9.00;;;;;;;23.96;68.01;99106.75;107193;1253;60435;-40
2023/07/18 00:36:55;;;;;;;14.30;9.90;;;;;;;23.97;67.95;99105.40;107276;1254;60332;-39
2023/07/18 00:39:23;;;;;;;12.20;9.00;;;;;;;23.97;67.91;99098.75;107311;1253;73923;-37
2023/07/18 00:41:52;;;;;;;11.30;8.90;;;;;;;23.95;68.03;99093.27;107249;1253;67570;-38
2023/07/18 00:44:21;;;;;;;10.20;8.00;;;;;;;23.94;68.24;99089.61;107404;1253;71396;-38
2023/07/18 00:46:50;;;;;;;9.30;8.00;;;;;;;23.96;68.39;99085.56;107546;1254;60509;-38
2023/07/18 00:49:18;;;;;;;10.10;8.10;;;;;;;24.00;68.35;99080.02;107409;1254;59582;-38
2023/07/18 00:51:46;;;;;;;11.20;8.70;;;;;;;24.02;68.26;99077.42;107637;1251;72781;-38
2023/07/18 00:54:14;;;;;;;11.20;8.70;;;;;;;24.00;68.21;99071.23;107684;1251;66276;-38
2023/07/18 00:56:42;;;;;;;10.30;9.20;;;;;;;24.00;68.18;99067.91;107699;1251;72661;-39
2023/07/18 00:59:10;;;;;;;11.30;9.20;;;;;;;23.98;68.31;99064.84;107686;1251;60467;-38
2023/07/18 01:01:38;;;;;;;10.50;8.50;;;;;;;23.94;68.01;99065.33;107714;1251;60021;-38
2023/07/18 01:04:08;;;;;;;11.30;8.10;;;;;;;23.92;68.30;99060.59;107699;1251;73822;-38
2023/07/18 01:06:36;;;;;;;11.00;8.90;;;;;;;23.94;68.37;99063.80;107731;1252;67596;-38
2023/07/18 01:09:05;;;;;;;14.50;9.00;;;;;;;23.93;68.71;99061.18;107711;1251;72664;-38
2023/07/18 01:11:33;;;;;;;14.10;9.50;;;;;;;23.84;68.75;99055.19;107711;1251;61175;-38
2023/07/18 01:14:01;;;;;;;13.80;10.60;;;;;;;23.79;68.55;99050.24;107420;1251;144964;-38
2023/07/18 01:18:03;;;;;;;13.40;10.20;;;;;;;23.73;68.55;99045.44;104349;1289;600355;-38
2023/07/18 01:20:33;;;;;;;13.70;10.10;;;;;;;23.70;68.52;99049.17;106721;1266;61708;-38
2023/07/18 01:23:05;;;;;;;17.90;10.00;;;;;;;23.70;68.46;99049.19;106834;1262;59340;-38
2023/07/18 01:25:35;;;;;;;10.90;9.50;;;;;;;23.65;68.85;99044.38;106748;1263;70813;-38
2023/07/18 01:28:03;;;;;;;13.80;10.00;;;;;;;23.64;69.19;99043.41;106738;1263;67579;-38
2023/07/18 01:30:30;;;;;;;11.90;9.30;;;;;;;23.63;69.28;99041.48;107160;1259;204811;-38
2023/07/18 01:32:58;;;;;;;14.30;9.90;;;;;;;23.66;69.47;99035.48;107471;1253;61731;-38
2023/07/18 01:35:27;;;;;;;12.60;9.90;;;;;;;23.70;69.54;99037.23;107519;1254;60051;-38
2023/07/18 01:37:56;;;;;;;12.60;10.70;;;;;;;23.72;69.12;99029.96;107494;1254;71027;-38
2023/07/18 01:40:24;;;;;;;13.10;10.60;;;;;;;23.71;68.68;99032.54;107574;1253;67629;-38
2023/07/18 01:42:53;;;;;;;13.80;11.20;;;;;;;23.67;68.36;99027.13;107497;1254;71088;-38
2023/07/18 01:45:24;;;;;;;12.10;9.70;;;;;;;23.63;68.47;99028.74;107477;1254;60267;-38
2023/07/18 01:47:54;;;;;;;12.90;10.50;;;;;;;23.61;68.75;99030.80;107425;1253;60014;-38
2023/07/18 01:50:21;;;;;;;11.90;9.20;;;;;;;23.64;68.73;99029.02;107535;1254;73126;-39
2023/07/18 01:52:49;;;;;;;12.90;9.10;;;;;;;23.67;68.55;99026.20;107461;1254;67599;-38
2023/07/18 01:55:19;;;;;;;;;;;;;;;23.69;68.66;99027.33;107491;1257;71410;-38
2023/07/18 01:57:48;;;;;;;12.90;9.80;;;;;;;23.65;69.01;99027.00;107490;1253;59810;-38
2023/07/18 02:00:20;;;;;;;13.40;10.10;;;;;;;23.62;69.11;99027.02;107332;1253;59677;-38
2023/07/18 02:02:51;;;;;;;12.50;9.50;;;;;;;23.65;68.98;99031.24;107473;1253;71738;-38
2023/07/18 02:05:21;;;;;;;12.50;10.00;;;;;;;23.68;68.99;99040.23;107480;1253;66282;-39
2023/07/18 02:07:49;;;;;;;14.90;10.80;;;;;;;23.70;70.17;99077.73;107237;1257;72693;-39
2023/07/18 02:10:19;;;;;;;11.40;10.30;;;;;;;23.59;69.48;99126.48;107259;1254;60148;-39
2023/07/18 02:12:48;;;;;;;15.30;10.90;;;;;;;23.41;69.21;99115.58;107391;1253;60810;-38
2023/07/18 02:15:16;;;;;;;13.90;9.70;;;;;;;23.30;69.57;99115.02;107239;1253;73080;-38
2023/07/18 02:17:44;;;;;;;11.70;8.80;;;;;;;23.26;68.93;99120.00;107477;1254;66321;-38
2023/07/18 02:20:13;;;;;;;12.10;8.50;;;;;;;23.27;68.56;99116.66;107393;1253;72705;-38
2023/07/18 02:22:43;;;;;;;13.40;8.30;;;;;;;23.26;67.93;99120.16;107397;1253;60196;-38
2023/07/18 02:25:11;;;;;;;10.70;8.20;;;;;;;23.22;67.42;99113.35;107268;1253;59682;-38
2023/07/18 02:27:39;;;;;;;10.90;8.00;;;;;;;23.18;66.91;99111.20;107213;1254;71556;-38
2023/07/18 02:30:09;;;;;;;11.50;7.90;;;;;;;23.17;66.36;99114.57;107406;1254;67735;-38
2023/07/18 02:32:38;;;;;;;11.30;6.80;;;;;;;23.20;65.69;99108.23;107395;1253;72705;-38
2023/07/18 02:35:08;;;;;;;7.60;6.50;;;;;;;23.24;64.67;99111.70;107415;1254;60089;-38
2023/07/18 02:37:36;;;;;;;8.60;6.30;;;;;;;23.24;63.33;99122.45;107424;1254;60037;-38
2023/07/18 02:40:09;;;;;;;7.90;6.50;;;;;;;23.21;62.99;99121.67;107243;1253;73090;-38
2023/07/18 02:42:38;;;;;;;6.80;6.10;;;;;;;23.16;62.83;99119.98;107347;1253;67645;-38
2023/07/18 02:45:08;;;;;;;10.40;6.80;;;;;;;23.15;63.15;99120.16;107355;1253;72689;-38
2023/07/18 02:47:39;;;;;;;8.60;6.60;;;;;;;23.11;63.00;99136.34;107396;1253;59705;-38
2023/07/18 02:50:07;;;;;;;8.70;6.40;;;;;;;23.04;63.26;99133.30;107169;1253;60042;-38
2023/07/18 02:52:36;;;;;;;9.00;6.30;;;;;;;22.99;63.44;99138.81;107381;1254;72911;-38
2023/07/18 02:55:04;;;;;;;6.10;5.50;;;;;;;22.96;63.39;99134.34;107388;1254;67927;-38
2023/07/18 02:57:32;;;;;;;7.50;5.30;;;;;;;22.90;63.33;99140.53;107430;1253;72836;-38
2023/07/18 03:00:01;;;;;;;9.40;5.90;;;;;;;22.85;63.32;99142.79;107448;1253;60035;-38
2023/07/18 03:02:31;;;;;;;6.60;5.90;;;;;;;22.78;63.78;99142.86;107532;1253;60085;-38
2023/07/18 03:04:59;;;;;;;6.10;5.50;;;;;;;22.76;63.97;99141.27;107483;1259;73404;-38
2023/07/18 03:07:27;;;;;;;9.70;6.10;;;;;;;22.74;64.08;99145.92;107425;1254;66642;-38
2023/07/18 03:09:55;;;;;;;6.30;5.40;;;;;;;22.70;64.17;99151.52;107256;1256;71533;-38
2023/07/18 03:12:22;;;;;;;6.30;5.20;;;;;;;22.68;64.32;99147.52;107292;1256;60448;-38
2023/07/18 03:14:50;;;;;;;6.50;5.60;;;;;;;22.69;64.22;99143.16;107436;1254;60039;-38
2023/07/18 03:17:18;;;;;;;6.10;5.50;;;;;;;22.70;64.49;99141.32;107381;1259;73057;-38
2023/07/18 03:19:46;;;;;;;6.40;5.40;;;;;;;22.70;64.30;99139.34;107456;1254;67874;-38
2023/07/18 03:22:14;;;;;;;7.80;5.00;;;;;;;22.69;64.21;99137.23;107426;1256;72685;-38
2023/07/18 03:24:42;;;;;;;5.80;5.00;;;;;;;22.64;64.19;99137.54;107464;1254;59660;-38
2023/07/18 03:27:10;;;;;;;6.90;5.00;;;;;;;22.59;64.17;99146.33;107438;1254;60031;-38
2023/07/18 03:29:37;;;;;;;6.20;5.00;;;;;;;22.56;64.32;99147.61;107379;1254;73032;-38
2023/07/18 03:32:06;;;;;;;6.80;4.80;;;;;;;22.56;64.10;99143.11;107424;1259;67896;-38
2023/07/18 03:34:34;;;;;;;6.50;4.90;;;;;;;22.54;64.27;99142.86;107325;1254;72710;-38
2023/07/18 03:37:01;;;;;;;6.40;5.10;;;;;;;22.49;64.17;99138.05;107311;1256;60082;-38
2023/07/18 03:39:29;;;;;;;7.40;5.20;;;;;;;22.47;64.33;99136.69;107350;1254;60140;-38
2023/07/18 03:41:56;;;;;;;5.00;4.50;;;;;;;22.44;64.05;99137.58;107424;1254;73087;-38
2023/07/18 03:44:24;;;;;;;8.30;4.90;;;;;;;22.39;64.23;99133.88;107426;1254;67910;-38
2023/07/18 03:46:52;;;;;;;4.80;4.20;;;;;;;22.35;64.51;99134.19;107331;1256;72647;-38
2023/07/18 03:49:37;;;;;;;5.00;4.10;;;;;;;22.33;64.51;99131.00;107364;1256;61846;-38
2023/07/18 03:52:05;;;;;;;5.00;4.30;;;;;;;22.35;64.77;99126.61;107175;1260;60086;-38
2023/07/18 03:54:33;;;;;;;6.70;4.50;;;;;;;22.33;64.73;99123.09;107268;1254;73102;-38
2023/07/18 03:57:02;;;;;;;6.70;4.60;;;;;;;22.32;65.01;99127.10;107405;1256;67891;-38
2023/07/18 03:59:30;;;;;;;6.50;4.70;;;;;;;22.27;64.84;99131.20;107244;1256;72677;-38
2023/07/18 04:01:57;;;;;;;4.90;4.30;;;;;;;22.21;65.06;99130.85;107170;1254;60445;-38
2023/07/18 04:04:26;;;;;;;5.20;4.00;;;;;;;22.15;65.32;99131.42;107334;1254;60039;-38
2023/07/18 04:06:54;;;;;;;4.80;3.90;;;;;;;22.14;65.51;99126.02;107231;1254;73064;-38
2023/07/18 04:09:22;;;;;;;6.30;4.10;;;;;;;22.13;65.49;99119.25;107421;1254;67936;-38
2023/07/18 04:11:49;;;;;;;6.10;4.40;;;;;;;22.16;65.69;99114.98;107366;1255;70780;-38
2023/07/18 04:14:17;;;;;;;4.70;3.80;;;;;;;22.18;65.75;99112.50;107398;1254;59496;-38
2023/07/18 04:16:45;;;;;;;4.20;3.70;;;;;;;22.18;65.90;99108.77;107267;1254;59982;-38
2023/07/18 04:19:13;;;;;;;4.50;4.10;;;;;;;22.21;65.93;99106.48;107192;1254;73062;-38
2023/07/18 04:21:41;;;;;;;8.80;4.20;;;;;;;22.21;65.86;99101.02;107254;1254;67819;-38
2023/07/18 04:24:11;;;;;;;4.50;3.90;;;;;;;22.25;65.73;99094.66;107262;1254;73164;-38
2023/07/18 04:26:38;;;;;;;4.10;3.70;;;;;;;22.32;65.80;99095.61;107221;1257;60076;-38
2023/07/18 04:29:06;;;;;;;7.60;4.40;;;;;;;22.36;65.67;99101.39;107264;1257;60048;-38
2023/07/18 04:31:34;;;;;;;4.30;3.90;;;;;;;22.38;65.49;99105.45;107271;1259;73105;-38
2023/07/18 04:34:02;;;;;;;5.10;4.30;;;;;;;22.41;65.62;99120.11;107364;1254;67898;-38
2023/07/18 04:36:30;;;;;;;4.40;3.80;;;;;;;22.38;65.41;99126.24;107346;1256;72731;-38
2023/07/18 04:38:57;;;;;;;4.80;3.80;;;;;;;22.32;65.65;99131.42;107200;1255;61663;-38
2023/07/18 04:41:25;;;;;;;4.70;3.60;;;;;;;22.28;65.94;99124.36;107283;1259;59522;-38
2023/07/18 04:44:02;;;;;;;8.50;4.30;;;;;;;22.31;66.18;99108.48;107354;1254;73061;-38
2023/07/18 04:46:30;;;;;;;4.90;4.00;;;;;;;22.33;66.20;99112.60;107322;1255;66645;-38
2023/07/18 04:48:58;;;;;;;4.30;3.90;;;;;;;22.35;66.30;99116.89;107229;1260;73463;-38
2023/07/18 04:51:26;;;;;;;6.60;4.30;;;;;;;22.35;66.21;99111.61;107165;1256;59487;-39
2023/07/18 04:53:54;;;;;;;4.40;4.00;;;;;;;22.33;66.24;99108.18;107266;1256;59558;-38
2023/07/18 04:56:21;;;;;;;5.30;3.90;;;;;;;22.34;66.26;99110.30;107258;1256;71338;-38
2023/07/18 04:58:49;;;;;;;5.30;3.70;;;;;;;22.39;66.17;99110.27;107165;1254;68050;-38
2023/07/18 05:01:17;;;;;;;6.50;4.20;;;;;;;22.45;66.05;99106.92;107283;1254;72673;-38
2023/07/18 05:03:50;;;;;;;5.10;4.20;;;;;;;22.49;66.26;99117.06;107379;1257;59673;-38
2023/07/18 05:06:29;;;;;;;6.00;4.20;;;;;;;22.50;66.27;99113.70;107165;1256;59289;-38
2023/07/18 05:08:56;;;;;;;5.20;4.70;;;;;;;22.49;66.30;99113.12;107305;1254;73035;-38
2023/07/18 05:11:24;;;;;;;4.70;4.20;;;;;;;22.49;66.29;99113.66;107301;1256;67732;-38
2023/07/18 05:13:51;;;;;;;4.50;3.90;;;;;;;22.50;66.24;99106.05;107281;1256;71342;-38
2023/07/18 05:16:19;;;;;;;5.00;4.20;;;;;;;22.55;66.32;99103.83;107309;1256;61706;-38
2023/07/18 05:18:47;;;;;;;4.20;3.80;;;;;;;22.63;66.31;99105.62;107313;1255;60035;-38
2023/07/18 05:21:17;;;;;;;4.90;4.10;;;;;;;22.75;66.04;99102.86;107533;1254;73131;-38
2023/07/18 05:23:45;;;;;;;7.60;4.30;;;;;;;22.84;65.57;99097.25;107324;1257;66429;-40
2023/07/18 05:26:13;;;;;;;4.60;4.00;;;;;;;22.95;65.34;99089.67;107261;1254;71074;-40
2023/07/18 05:28:40;;;;;;;5.40;4.50;;;;;;;23.02;64.55;99095.59;107284;1256;60211;-41
2023/07/18 05:31:10;;;;;;;4.20;3.80;;;;;;;23.01;64.52;99090.27;107225;1255;61411;-40
2023/07/18 05:33:38;;;;;;;5.10;4.20;;;;;;;23.06;64.59;99080.05;107157;1256;72652;-40
2023/07/18 05:36:06;;;;;;;4.50;3.80;;;;;;;23.13;64.48;99076.31;107099;1257;66370;-38
2023/07/18 05:38:33;;;;;;;4.60;4.20;;;;;;;23.20;64.65;99069.58;107028;1256;72705;-40
2023/07/18 05:41:01;;;;;;;5.40;4.10;;;;;;;23.29;64.74;99062.73;107033;1256;60096;-39
2023/07/18 05:43:29;;;;;;;4.90;4.10;;;;;;;23.40;64.29;99057.52;107149;1256;60515;-39
2023/07/18 05:45:57;;;;;;;4.40;4.00;;;;;;;23.49;64.10;99051.57;107105;1257;72576;-40
2023/07/18 05:48:24;;;;;;;4.50;4.10;;;;;;;23.58;63.96;99058.92;107175;1255;66385;-39
2023/07/18 05:50:53;;;;;;;5.40;3.80;;;;;;;23.64;63.80;99061.11;107197;1255;72717;-39
2023/07/18 05:53:21;;;;;;;4.90;3.80;;;;;;;23.72;63.34;99064.30;107248;1254;61696;-39
2023/07/18 05:55:49;;;;;;;4.80;3.90;;;;;;;23.81;62.78;99063.54;107323;1255;60577;-39
2023/07/18 05:58:17;;;;;;;4.00;3.60;;;;;;;23.84;62.21;99063.98;107308;1254;72622;-39
2023/07/18 06:00:44;;;;;;;3.90;3.60;;;;;;;23.84;62.13;99063.67;107395;1259;66290;-39
2023/07/18 06:03:12;;;;;;;5.10;4.30;;;;;;;23.87;62.05;99058.42;107387;1256;73275;-39
2023/07/18 06:05:40;;;;;;;5.20;3.80;;;;;;;23.91;62.09;99053.81;107408;1254;60289;-39
2023/07/18 06:08:09;;;;;;;4.90;3.80;;;;;;;23.95;61.93;99050.63;107384;1254;60595;-40
2023/07/18 06:10:37;;;;;;;4.90;3.80;;;;;;;23.99;61.83;99050.94;107367;1259;72772;-39
2023/07/18 06:13:04;;;;;;;4.00;3.40;;;;;;;24.07;61.93;99057.11;107353;1257;67785;-39
2023/07/18 06:15:32;;;;;;;3.80;3.40;;;;;;;24.21;61.40;99054.49;107499;1257;73141;-39
2023/07/18 06:18:00;;;;;;;4.80;3.60;;;;;;;24.35;60.58;99049.23;107331;1259;60408;-39
2023/07/18 06:20:28;;;;;;;4.10;3.60;;;;;;;24.49;60.35;99047.00;107419;1254;60414;-39
2023/07/18 06:22:55;;;;;;;4.70;3.50;;;;;;;24.61;59.94;99040.66;107334;1256;73864;-39
2023/07/18 06:25:24;;;;;;;4.40;3.60;;;;;;;24.76;59.45;99039.98;107224;1255;67581;-39
2023/07/18 06:27:52;;;;;;;3.50;3.20;;;;;;;24.85;58.35;99041.63;107228;1261;72671;-40
2023/07/18 06:30:19;;;;;;;4.40;3.80;;;;;;;24.92;58.13;99048.31;107255;1256;60355;-39
2023/07/18 06:32:47;;;;;;;4.20;3.60;;;;;;;24.93;57.84;99059.05;107268;1255;60412;-40
2023/07/18 06:35:15;;;;;;;4.70;4.00;;;;;;;24.92;57.76;99064.72;107257;1256;73880;-39
2023/07/18 06:37:50;;;;;;;4.20;3.30;;;;;;;24.90;58.31;99065.98;107362;1259;67567;-39
2023/07/18 06:40:18;;;;;;;4.50;3.30;;;;;;;24.87;58.50;99066.59;107274;1256;72536;-39
2023/07/18 06:42:46;;;;;;;4.50;4.00;;;;;;;24.87;58.21;99065.51;107292;1259;60424;-39
2023/07/18 06:45:14;;;;;;;4.10;3.40;;;;;;;24.86;58.10;99063.38;107230;1256;60507;-40
2023/07/18 06:47:43;;;;;;;4.00;3.60;;;;;;;24.87;58.57;99061.54;107411;1256;73873;-39
2023/07/18 06:50:11;;;;;;;4.40;3.60;;;;;;;24.90;58.78;99060.48;107292;1257;67937;-39
2023/07/18 06:52:39;;;;;;;3.90;3.50;;;;;;;24.95;58.49;99061.98;107324;1259;70842;-40
2023/07/18 06:55:10;;;;;;;3.80;3.50;;;;;;;25.01;58.54;99058.04;107221;1256;60252;-40
2023/07/18 06:57:38;;;;;;;4.40;3.70;;;;;;;25.02;58.35;99065.69;107290;1256;60555;-39
2023/07/18 07:00:11;;;;;;;4.20;3.80;;;;;;;25.00;58.37;99071.33;107243;1255;74456;-39
2023/07/18 07:02:39;;;;;;;4.40;3.40;;;;;;;24.96;58.49;99071.27;107324;1256;68094;-39
2023/07/18 07:05:08;;;;;;;4.80;4.20;;;;;;;24.90;58.28;99074.55;107385;1256;72647;-39
2023/07/18 07:07:35;;;;;;;5.60;3.60;;;;;;;24.81;58.13;99070.98;107239;1256;60520;-39
2023/07/18 07:10:08;;;;;;;5.40;4.00;;;;;;;24.70;58.76;99070.54;107272;1256;60369;-40
2023/07/18 07:12:36;;;;;;;4.30;3.60;;;;;;;24.62;59.06;99079.35;107281;1256;73852;-39
2023/07/18 07:15:05;;;;;;;5.20;3.60;;;;;;;24.53;59.70;99076.41;107261;1256;68019;-39
2023/07/18 07:17:33;;;;;;;4.70;4.10;;;;;;;24.44;60.10;99076.04;107392;1256;72667;-39
2023/07/18 07:20:00;;;;;;;5.40;3.80;;;;;;;24.38;60.92;99090.38;107243;1255;61707;-39
2023/07/18 07:22:28;;;;;;;5.30;3.70;;;;;;;24.33;61.32;99096.89;107309;1256;60376;-40
2023/07/18 07:24:57;;;;;;;5.80;3.90;;;;;;;24.28;61.38;99101.48;107181;1256;73870;-40
2023/07/18 07:27:24;;;;;;;4.10;3.70;;;;;;;24.19;61.58;99096.83;107248;1256;67922;-40
2023/07/18 07:29:52;;;;;;;6.60;3.80;;;;;;;24.12;61.87;99093.60;107317;1254;72660;-39
2023/07/18 07:32:20;;;;;;;6.20;4.50;;;;;;;24.09;62.41;99099.38;107334;1256;60307;-39
2023/07/18 07:34:48;;;;;;;4.80;4.20;;;;;;;24.05;62.86;99100.23;107323;1254;60297;-39
2023/07/18 07:37:15;;;;;;;4.70;4.10;;;;;;;24.04;62.97;99101.55;107380;1256;74143;-39
2023/07/18 07:39:44;;;;;;;4.60;4.20;;;;;;;24.02;62.81;99098.92;107232;1260;67703;-39
2023/07/18 07:42:12;;;;;;;5.20;3.80;;;;;;;24.00;62.83;99095.35;107250;1256;71462;-40
2023/07/18 07:44:40;;;;;;;4.10;3.70;;;;;;;23.95;62.62;99093.27;107266;1260;60497;-39
2023/07/18 07:47:08;;;;;;;4.40;4.00;;;;;;;23.87;62.91;99092.32;107273;1260;60313;-39
2023/07/18 07:49:35;;;;;;;4.50;4.10;;;;;;;23.80;62.75;99095.98;107284;1259;71823;-39
2023/07/18 07:52:04;;;;;;;8.90;4.20;;;;;;;23.75;63.10;99096.73;107238;1256;67586;-39
2023/07/18 07:54:31;;;;;;;5.30;3.90;;;;;;;23.74;63.52;99097.26;107310;1256;71578;-39
2023/07/18 07:56:59;;;;;;;4.10;3.70;;;;;;;23.75;63.81;99098.80;107216;1255;60585;-39
2023/07/18 07:59:26;;;;;;;6.90;4.00;;;;;;;23.75;63.86;99098.66;107247;1256;60402;-39
2023/07/18 08:01:54;;;;;;;5.90;4.10;;;;;;;23.71;63.89;99098.48;107196;1256;72435;-39
2023/07/18 08:04:22;;;;;;;4.50;3.90;;;;;;;23.68;63.43;99102.63;107197;1257;67717;-40
2023/07/18 08:06:52;;;;;;;6.10;3.90;;;;;;;23.64;63.63;99096.01;107209;1255;71045;-40
2023/07/18 08:09:20;;;;;;;4.00;3.60;;;;;;;23.60;63.74;99093.12;107257;1256;61750;-40
2023/07/18 08:11:48;;;;;;;5.90;4.00;;;;;;;23.63;63.95;99088.84;107349;1259;60300;-40
2023/07/18 08:14:17;;;;;;;4.30;3.90;;;;;;;23.70;64.04;99085.73;107262;1255;73848;-40
2023/07/18 08:16:44;;;;;;;4.50;4.00;;;;;;;23.76;64.24;99085.33;107250;1254;67889;-40
2023/07/18 08:19:12;;;;;;;4.90;4.30;;;;;;;23.82;64.16;99085.87;107289;1259;72721;-41
2023/07/18 08:21:40;;;;;;;6.90;4.60;;;;;;;23.91;64.36;99086.95;107280;1254;59562;-41
2023/07/18 08:24:07;;;;;;;6.40;4.50;;;;;;;24.03;64.18;99095.17;107333;1253;60373;-40
2023/07/18 08:26:35;;;;;;;5.00;4.20;;;;;;;24.16;62.49;99091.73;107159;1254;73840;-40
2023/07/18 08:29:02;;;;;;;5.10;4.20;;;;;;;24.32;62.03;99091.80;107219;1254;66570;-40
2023/07/18 08:31:30;;;;;;;5.20;4.30;;;;;;;24.46;62.02;99086.45;107255;1257;72647;-40
2023/07/18 08:33:57;;;;;;;5.30;4.80;;;;;;;24.61;61.81;99090.75;107306;1255;60471;-40
2023/07/18 08:36:25;;;;;;;5.00;4.30;;;;;;;24.74;60.98;99098.02;107227;1254;60278;-41
2023/07/18 08:38:53;;;;;;;5.10;4.00;;;;;;;24.83;59.92;99097.58;107299;1254;74390;-40
2023/07/18 08:41:20;;;;;;;4.30;3.90;;;;;;;24.88;60.15;99096.03;107183;1259;66685;-40
2023/07/18 08:43:49;;;;;;;5.10;4.60;;;;;;;24.93;60.13;99100.27;107188;1259;72714;-39
2023/07/18 08:46:16;;;;;;;4.50;4.10;;;;;;;25.01;60.13;99096.98;107275;1254;60809;-39
2023/07/18 08:48:44;;;;;;;4.20;3.80;;;;;;;25.18;59.55;99102.56;107251;1254;60305;-38
2023/07/18 08:51:12;;;;;;;4.50;3.90;;;;;;;25.38;58.85;99094.91;107220;1254;73200;-40
2023/07/18 08:53:43;;;;;;;4.80;4.20;;;;;;;25.53;57.93;99094.69;107460;1255;66286;-39
2023/07/18 08:56:10;;;;;;;4.30;3.90;;;;;;;25.61;58.24;99092.29;107259;1254;71406;-39
2023/07/18 08:58:38;;;;;;;4.60;4.10;;;;;;;25.67;58.18;99098.84;107288;1257;60159;-40
2023/07/18 09:01:06;;;;;;;4.50;4.00;;;;;;;25.70;58.02;99097.10;107270;1254;60424;-39
2023/07/18 09:03:35;;;;;;;5.00;4.40;;;;;;;25.74;58.06;99096.35;107260;1254;72628;-39
2023/07/18 09:06:03;;;;;;;4.60;4.20;;;;;;;25.77;58.14;99089.86;107342;1254;66279;-39
2023/07/18 09:08:43;;;;;;;4.90;4.20;;;;;;;25.80;57.89;99093.51;107283;1257;72682;-39
2023/07/18 09:11:12;;;;;;;4.60;4.00;;;;;;;25.87;57.51;99092.41;107281;1257;60588;-40
2023/07/18 09:13:41;;;;;;;4.80;4.30;;;;;;;25.99;57.51;99091.37;107402;1253;60307;-39
2023/07/18 09:16:15;;;;;;;4.00;3.70;;;;;;;26.15;56.43;99099.69;107385;1255;73996;-39
2023/07/18 09:18:53;;;;;;;4.90;4.20;;;;;;;26.32;56.38;99094.58;107265;1257;67971;-38
2023/07/18 09:21:22;;;;;;;5.60;4.30;;;;;;;26.50;56.22;99096.02;107211;1255;72692;-39
2023/07/18 09:23:50;;;;;;;4.90;4.10;;;;;;;26.69;55.06;99096.77;107258;1254;60643;-39
2023/07/18 09:26:20;;;;;;;4.50;4.00;;;;;;;26.86;54.79;99098.23;107340;1254;60427;-39
2023/07/18 09:28:48;;;;;;;3.90;3.60;;;;;;;27.03;54.40;99097.04;107296;1259;72747;-39
2023/07/18 09:31:20;;;;;;;5.30;4.60;;;;;;;27.19;53.78;99095.63;107184;1261;67280;-39
2023/07/18 09:33:51;;;;;;;4.90;4.20;;;;;;;27.29;53.08;99099.29;107277;1254;72685;-39
2023/07/18 09:36:20;;;;;;;4.60;3.80;;;;;;;27.29;52.81;99101.92;107382;1254;59353;-39
2023/07/18 09:38:49;;;;;;;6.50;4.10;;;;;;;27.23;53.23;99095.95;107289;1253;60411;-39
2023/07/18 09:41:19;;;;;;;4.40;4.00;;;;;;;27.20;53.41;99096.45;107291;1255;73831;-39
2023/07/18 09:43:52;;;;;;;4.40;4.00;;;;;;;27.20;53.42;99095.94;107271;1254;66222;-39
2023/07/18 09:46:40;;;;;;;3.90;3.50;;;;;;;27.17;52.00;99097.87;107158;1256;71438;-41
2023/07/18 09:49:19;;;;;;;4.00;3.50;;;;;;;27.12;51.92;99097.33;107373;1256;60390;-39
2023/07/18 09:51:55;;;;;;;4.00;3.60;;;;;;;27.17;52.67;99100.03;107282;1257;60271;-39
2023/07/18 09:54:23;;;;;;;4.50;3.90;;;;;;;27.25;52.40;99094.61;107252;1254;73993;-40
2023/07/18 09:56:52;;;;;;;4.50;4.10;;;;;;;27.32;52.94;99088.77;107274;1254;67691;-40
2023/07/18 09:59:20;;;;;;;3.80;3.50;;;;;;;27.37;52.74;99084.24;107358;1254;71369;-39
2023/07/18 10:01:51;;;;;;;5.90;4.30;;;;;;;27.35;51.90;99082.99;107346;1256;60411;-39
2023/07/18 10:04:23;;;;;;;5.70;4.20;;;;;;;27.27;52.50;99083.51;107315;1254;60438;-39
2023/07/18 10:06:51;;;;;;;5.10;4.30;;;;;;;27.20;52.60;99086.40;107366;1254;73078;-39
2023/07/18 10:09:18;;;;;;;4.50;4.00;;;;;;;27.18;52.74;99083.20;107383;1254;67179;-39
2023/07/18 10:11:58;;;;;;;4.00;3.60;;;;;;;27.18;53.23;99084.59;107334;1254;72463;-39
2023/07/18 10:14:30;;;;;;;5.90;4.20;;;;;;;27.21;53.65;99084.71;107318;1254;60236;-40
2023/07/18 10:17:04;;;;;;;4.30;3.90;;;;;;;27.23;53.30;99081.98;107336;1253;60398;-41
2023/07/18 10:19:55;;;;;;;5.40;3.90;;;;;;;27.25;52.57;99074.88;107248;1254;75867;-39
2023/07/18 10:22:32;;;;;;;4.70;4.10;;;;;;;27.25;53.28;99072.25;107254;1257;67628;-39
2023/07/18 10:25:06;;;;;;;4.30;3.90;;;;;;;27.23;52.48;99072.73;107173;1254;71361;-39
2023/07/18 10:27:42;;;;;;;4.80;4.30;;;;;;;27.23;52.98;99068.02;107289;1259;60297;-39
2023/07/18 10:30:11;;;;;;;6.70;4.50;;;;;;;27.30;52.70;99067.92;107221;1257;60352;-39
2023/07/18 10:32:39;;;;;;;;;;;;;;;27.38;52.44;99064.46;107275;1256;72570;-38
2023/07/18 10:35:09;;;;;;;4.90;4.40;;;;;;;27.40;51.89;99060.71;107234;1254;67591;-39
2023/07/18 10:37:49;;;;;;;;;;;;;;;27.45;52.81;99061.77;107265;1259;72683;-38
2023/07/18 10:40:38;;;;;;;5.90;4.20;;;;;;;27.64;53.17;99058.91;107317;1259;60418;-39
2023/07/18 10:43:11;;;;;;;5.10;4.30;;;;;;;27.98;51.50;99051.71;107357;1254;60275;-38
2023/07/18 10:45:41;;;;;;;4.40;4.00;;;;;;;28.29;50.47;99051.30;107288;1254;73971;-39
2023/07/18 10:48:16;;;;;;;5.40;4.50;;;;;;;28.57;50.35;99047.80;107353;1254;67875;-39
2023/07/18 10:50:44;;;;;;;6.70;5.70;;;;;;;28.76;48.88;99047.79;107279;1257;72676;-39
2023/07/18 10:53:13;;;;;;;7.10;5.30;;;;;;;28.87;49.26;99051.00;107430;1254;60276;-39
2023/07/18 10:55:41;;;;;;;8.00;4.80;;;;;;;28.94;48.36;99050.51;107376;1253;60526;-39
2023/07/18 10:58:10;;;;;;;7.20;4.80;;;;;;;28.98;46.50;99046.03;107260;1259;73840;-39
2023/07/18 11:00:39;;;;;;;7.00;5.10;;;;;;;28.99;45.92;99046.96;108756;1259;68134;-39
2023/07/18 11:03:20;;;;;;;7.30;5.20;;;;;;;29.04;46.07;99046.70;107217;1254;72670;-39
2023/07/18 11:05:51;;;;;;;5.80;4.80;;;;;;;29.10;44.20;99045.84;109090;1256;58445;-40
2023/07/18 11:08:26;;;;;;;8.20;4.70;;;;;;;29.21;44.07;99045.23;109137;1254;60052;-40
2023/07/18 11:10:59;;;;;;;7.50;4.40;;;;;;;29.40;43.49;99049.70;109154;1254;73821;-40
2023/07/18 11:13:30;;;;;;;6.10;4.70;;;;;;;29.70;41.40;99045.36;108002;1259;67917;-40
2023/07/18 11:16:06;;;;;;;5.60;4.40;;;;;;;29.94;39.55;99046.30;107523;1257;71424;-39
2023/07/18 11:18:37;;;;;;;8.60;4.40;;;;;;;30.11;39.42;99048.14;107267;1254;59272;-39
2023/07/18 11:21:05;;;;;;;7.10;4.20;;;;;;;30.21;38.25;99047.63;107381;1257;60052;-39
2023/07/18 11:23:34;;;;;;;9.10;4.40;;;;;;;30.32;37.30;99047.27;107314;1259;73878;-39
2023/07/18 11:26:12;;;;;;;4.70;4.10;;;;;;;30.43;36.41;99050.38;107345;1257;67585;-40
2023/07/18 11:28:41;;;;;;;6.30;4.30;;;;;;;30.58;36.82;99051.98;107271;1259;72718;-40
2023/07/18 11:31:22;;;;;;;4.40;3.90;;;;;;;30.75;35.96;99048.02;109100;1255;59079;-40
2023/07/18 11:33:54;;;;;;;6.30;4.10;;;;;;;30.86;34.44;99054.31;108721;1254;58778;-40
2023/07/18 11:36:22;;;;;;;6.60;4.10;;;;;;;30.89;34.20;99046.89;107386;1256;72586;-39